createdAt,value
2019-03-22T00:01:45.296Z,85.64
2019-03-22T00:04:16.713Z,85.92
2019-03-22T00:06:48.134Z,86.80
2019-03-22T00:09:25.351Z,86.67
2019-03-22T00:11:56.774Z,86.81
2019-03-22T00:14:28.163Z,87.22
2019-03-22T00:16:59.630Z,87.12
2019-03-22T00:19:31.082Z,86.66
2019-03-22T00:22:02.505Z,86.29
2019-03-22T00:24:33.885Z,86.21
2019-03-22T00:27:15.835Z,86.52
2019-03-22T00:29:41.551Z,86.37
2019-03-22T00:32:13.011Z,86.38
2019-03-22T00:34:44.389Z,86.08
2019-03-22T00:37:15.838Z,86.35
2019-03-22T00:39:49.657Z,86.43
2019-03-22T00:42:21.082Z,87.05
2019-03-22T00:44:52.422Z,86.79
2019-03-22T00:47:23.827Z,87.16
2019-03-22T00:49:55.229Z,87.63
2019-03-22T00:52:26.677Z,87.87
2019-03-22T00:54:58.016Z,88.06
2019-03-22T00:57:29.428Z,87.92
2019-03-22T01:00:02.404Z,87.65
2019-03-22T01:02:33.853Z,87.51
2019-03-22T01:05:06.322Z,87.93
2019-03-22T01:07:37.716Z,88.03
2019-03-22T01:10:10.266Z,88.20
2019-03-22T01:12:41.812Z,88.41
2019-03-22T01:15:14.664Z,88.89
2019-03-22T01:17:46.059Z,88.78
2019-03-22T01:20:20.976Z,88.65
2019-03-22T01:22:52.323Z,88.83
2019-03-22T01:25:23.736Z,88.81
2019-03-22T01:27:55.142Z,89.04
2019-03-22T01:30:29.572Z,88.50
2019-03-22T01:33:01.006Z,88.44
2019-03-22T01:35:32.351Z,88.71
2019-03-22T01:38:03.961Z,88.73
2019-03-22T01:40:35.328Z,88.67
2019-03-22T01:43:06.765Z,88.75
2019-03-22T01:45:38.442Z,88.99
2019-03-22T01:48:09.838Z,89.51
2019-03-22T01:50:41.219Z,89.83
2019-03-22T01:53:12.607Z,89.90
2019-03-22T01:55:43.993Z,89.55
2019-03-22T01:58:15.763Z,89.48
2019-03-22T02:00:47.194Z,89.19
2019-03-22T02:03:18.590Z,89.41
2019-03-22T02:05:49.976Z,89.24
2019-03-22T02:08:21.520Z,89.35
2019-03-22T02:10:52.902Z,89.27
2019-03-22T02:13:25.259Z,89.59
2019-03-22T02:15:56.835Z,89.85
2019-03-22T02:18:28.269Z,90.07
2019-03-22T02:20:59.691Z,90.81
2019-03-22T02:23:31.077Z,91.02
2019-03-22T02:26:02.467Z,91.43
2019-03-22T02:28:33.858Z,91.42
2019-03-22T02:31:05.281Z,91.50
2019-03-22T02:33:38.860Z,91.77
2019-03-22T02:36:10.261Z,91.87
2019-03-22T02:38:41.689Z,91.63
2019-03-22T02:41:13.058Z,91.54
2019-03-22T02:43:44.556Z,91.65
2019-03-22T02:46:15.911Z,91.14
2019-03-22T02:48:47.352Z,91.42
2019-03-22T02:51:18.706Z,91.71
2019-03-22T02:53:50.247Z,91.52
2019-03-22T02:56:21.693Z,91.90
2019-03-22T02:58:53.098Z,91.25
2019-03-22T03:01:24.476Z,91.29
2019-03-22T03:03:56.040Z,91.98
2019-03-22T03:06:27.432Z,91.93
2019-03-22T03:08:58.899Z,92.08
2019-03-22T03:11:31.281Z,91.89
2019-03-22T03:14:03.448Z,91.98
2019-03-22T03:16:34.911Z,92.01
2019-03-22T03:19:07.003Z,92.56
2019-03-22T03:21:39.763Z,92.67
2019-03-22T03:24:11.205Z,92.65
2019-03-22T03:26:42.545Z,92.35
2019-03-22T03:29:14.029Z,92.11
2019-03-22T03:31:45.518Z,92.42
2019-03-22T03:34:17.055Z,92.34
2019-03-22T03:36:48.494Z,92.58
2019-03-22T03:39:19.956Z,92.82
2019-03-22T03:41:53.289Z,93.20
2019-03-22T03:44:25.100Z,93.40
2019-03-22T03:46:56.588Z,93.21
2019-03-22T03:49:28.109Z,93.68
2019-03-22T03:51:59.603Z,93.87
2019-03-22T03:54:31.008Z,93.83
2019-03-22T03:57:02.683Z,93.46
2019-03-22T03:59:35.709Z,92.98
2019-03-22T04:02:09.069Z,92.93
2019-03-22T04:04:40.643Z,92.64
2019-03-22T04:07:12.101Z,92.69
2019-03-22T04:09:43.502Z,92.50
2019-03-22T04:12:15.157Z,92.64
2019-03-22T04:14:46.642Z,92.52
2019-03-22T04:17:18.012Z,92.56
2019-03-22T04:19:49.638Z,92.17
2019-03-22T04:22:21.042Z,91.96
2019-03-22T04:24:52.482Z,91.92
2019-03-22T04:27:23.879Z,91.88
2019-03-22T04:29:58.592Z,91.69
2019-03-22T04:32:29.943Z,91.49
2019-03-22T04:35:01.412Z,91.43
2019-03-22T04:37:32.886Z,91.70
2019-03-22T04:40:07.451Z,91.75
2019-03-22T04:42:38.825Z,91.79
2019-03-22T04:45:10.401Z,91.86
2019-03-22T04:47:45.954Z,91.98
2019-03-22T04:50:17.418Z,91.94
2019-03-22T04:52:49.708Z,91.75
2019-03-22T04:55:23.632Z,91.55
2019-03-22T04:57:59.384Z,91.65
2019-03-22T05:00:31.100Z,91.81
2019-03-22T05:03:03.038Z,91.51
2019-03-22T05:05:34.788Z,91.22
2019-03-22T05:08:09.542Z,91.36
2019-03-22T05:10:44.651Z,91.50
2019-03-22T05:13:19.735Z,91.33
2019-03-22T05:15:52.328Z,91.37
2019-03-22T05:18:24.629Z,91.55
2019-03-22T05:20:56.448Z,91.60
2019-03-22T05:23:32.464Z,91.54
2019-03-22T05:26:05.043Z,91.61
2019-03-22T05:28:37.107Z,91.73
2019-03-22T05:31:34.990Z,91.75
2019-03-22T05:34:06.303Z,91.51
2019-03-22T05:36:37.724Z,91.75
2019-03-22T05:39:11.281Z,91.77
2019-03-22T05:41:42.756Z,91.89
2019-03-22T05:44:14.321Z,92.48
2019-03-22T05:46:45.772Z,92.55
2019-03-22T05:49:17.211Z,92.48
2019-03-22T05:51:48.851Z,92.09
2019-03-22T05:54:20.318Z,91.82
2019-03-22T05:56:51.925Z,92.16
2019-03-22T05:59:23.292Z,92.18
2019-03-22T06:01:54.765Z,92.48
2019-03-22T06:04:26.188Z,92.56
2019-03-22T06:06:59.214Z,92.57
2019-03-22T06:09:30.588Z,92.88
2019-03-22T06:12:02.049Z,93.04
2019-03-22T06:14:33.512Z,92.88
2019-03-22T06:17:04.964Z,93.40
2019-03-22T06:19:36.356Z,93.04
2019-03-22T06:22:10.791Z,93.00
2019-03-22T06:24:42.247Z,92.93
2019-03-22T06:27:13.824Z,93.83
2019-03-22T06:29:53.778Z,93.97
2019-03-22T06:32:18.514Z,94.06
2019-03-22T06:34:49.914Z,93.73
2019-03-22T06:37:21.391Z,93.94
2019-03-22T06:39:52.787Z,94.39
2019-03-22T06:42:24.204Z,94.24
2019-03-22T06:44:56.625Z,94.19
2019-03-22T06:47:30.927Z,94.38
2019-03-22T06:50:02.327Z,94.38
2019-03-22T06:52:33.774Z,94.74
2019-03-22T06:55:06.806Z,95.10
2019-03-22T06:57:38.252Z,95.07
2019-03-22T07:00:10.244Z,95.09
2019-03-22T07:02:41.663Z,95.25
2019-03-22T07:05:13.761Z,95.22
2019-03-22T07:07:45.452Z,95.10
2019-03-22T07:10:16.987Z,95.15
2019-03-22T07:12:48.460Z,95.26
2019-03-22T07:15:19.822Z,95.32
2019-03-22T07:17:54.345Z,95.48
2019-03-22T07:20:25.758Z,95.81
2019-03-22T07:23:00.187Z,95.85
2019-03-22T07:25:31.671Z,95.81
2019-03-22T07:28:03.086Z,95.86
2019-03-22T07:30:35.225Z,95.76
2019-03-22T07:33:07.932Z,95.94
2019-03-22T07:35:39.421Z,95.85
2019-03-22T07:38:14.123Z,95.73
2019-03-22T07:40:47.076Z,95.59
2019-03-22T07:43:18.487Z,95.52
2019-03-22T07:45:49.935Z,95.54
2019-03-22T07:48:24.557Z,95.52
2019-03-22T07:50:55.948Z,95.37
2019-03-22T07:53:27.346Z,95.41
2019-03-22T07:55:58.743Z,95.21
2019-03-22T07:58:30.194Z,95.24
2019-03-22T08:01:01.612Z,94.99
2019-03-22T08:03:35.883Z,94.84
2019-03-22T08:06:09.012Z,94.67
2019-03-22T08:08:40.477Z,94.46
2019-03-22T08:11:11.852Z,94.22
2019-03-22T08:13:43.256Z,93.89
2019-03-22T08:16:14.628Z,93.81
2019-03-22T08:18:47.224Z,93.68
2019-03-22T08:21:18.642Z,93.32
2019-03-22T08:23:50.082Z,92.96
2019-03-22T08:26:21.437Z,92.78
2019-03-22T08:28:52.799Z,92.65
2019-03-22T08:31:24.179Z,92.37
2019-03-22T08:33:55.594Z,92.13
2019-03-22T08:36:26.953Z,91.76
2019-03-22T08:38:58.316Z,91.58
2019-03-22T08:41:29.725Z,91.34
2019-03-22T08:44:02.817Z,91.23
2019-03-22T08:46:34.271Z,91.23
2019-03-22T08:49:06.095Z,91.05
2019-03-22T08:51:38.798Z,90.92
2019-03-22T08:54:10.204Z,91.05
2019-03-22T08:56:41.596Z,91.01
2019-03-22T08:59:13.531Z,90.92
2019-03-22T09:01:47.405Z,90.72
2019-03-22T09:04:21.877Z,90.31
2019-03-22T09:06:53.297Z,90.01
2019-03-22T09:09:24.753Z,89.26
2019-03-22T09:11:56.142Z,88.24
2019-03-22T09:14:27.504Z,87.27
2019-03-22T09:16:58.910Z,86.90
2019-03-22T09:19:30.298Z,86.77
2019-03-22T09:22:01.728Z,86.44
2019-03-22T09:24:39.009Z,86.22
2019-03-22T09:27:06.171Z,85.82
2019-03-22T09:29:37.618Z,84.21
2019-03-22T09:32:08.995Z,82.03
2019-03-22T09:34:40.404Z,81.24
2019-03-22T09:37:20.215Z,81.03
2019-03-22T09:39:51.655Z,79.44
2019-03-22T09:42:23.126Z,77.79
2019-03-22T09:44:54.459Z,77.76
2019-03-22T09:47:25.792Z,76.22
2019-03-22T09:49:57.256Z,75.83
2019-03-22T09:52:28.671Z,76.64
2019-03-22T09:55:12.557Z,74.40
2019-03-22T09:57:33.228Z,73.93
2019-03-22T10:00:05.270Z,73.87
2019-03-22T10:02:36.711Z,72.71
2019-03-22T10:05:10.949Z,70.34
2019-03-22T10:07:42.411Z,68.83
2019-03-22T10:10:16.347Z,69.20
2019-03-22T10:12:47.718Z,68.37
2019-03-22T10:15:19.125Z,67.36
2019-03-22T10:17:50.548Z,65.89
2019-03-22T10:20:22.063Z,64.26
2019-03-22T10:22:53.481Z,65.53
2019-03-22T10:25:24.920Z,65.64
2019-03-22T10:27:58.596Z,64.88
2019-03-22T10:30:34.028Z,63.62
2019-03-22T10:33:05.417Z,63.89
2019-03-22T10:35:39.905Z,63.45
2019-03-22T10:38:16.415Z,61.88
2019-03-22T10:40:44.591Z,62.02
2019-03-22T10:43:15.918Z,61.68
2019-03-22T10:45:47.335Z,60.75
2019-03-22T10:48:18.695Z,59.65
2019-03-22T10:50:50.060Z,59.15
2019-03-22T10:53:21.404Z,61.37
2019-03-22T10:55:52.797Z,60.48
2019-03-22T10:58:24.207Z,59.54
2019-03-22T11:00:55.680Z,60.37
2019-03-22T11:03:27.100Z,57.35
2019-03-22T11:05:58.616Z,57.19
2019-03-22T11:08:31.529Z,57.02
2019-03-22T11:11:03.945Z,55.00
2019-03-22T11:13:35.294Z,54.81
2019-03-22T11:16:07.062Z,54.37
2019-03-22T11:18:38.424Z,52.57
2019-03-22T11:21:09.835Z,51.87
2019-03-22T11:23:41.234Z,51.64
2019-03-22T11:26:12.660Z,51.14
2019-03-22T11:28:44.106Z,51.05
2019-03-22T11:31:15.721Z,51.80
2019-03-22T11:33:48.075Z,50.62
2019-03-22T11:36:19.616Z,49.53
2019-03-22T11:38:53.322Z,49.07
2019-03-22T11:41:24.751Z,49.18
2019-03-22T11:43:56.201Z,49.78
2019-03-22T11:46:27.645Z,50.20
2019-03-22T11:48:59.028Z,49.52
2019-03-22T11:51:30.683Z,49.82
2019-03-22T11:54:02.068Z,49.98
2019-03-22T11:56:33.499Z,50.01
2019-03-22T11:59:04.941Z,51.06
2019-03-22T12:01:38.738Z,48.28
2019-03-22T12:04:11.862Z,49.07
2019-03-22T12:06:43.474Z,50.00
2019-03-22T12:09:14.834Z,49.97
2019-03-22T12:11:46.317Z,50.34
2019-03-22T12:14:17.749Z,49.97
2019-03-22T12:16:49.177Z,50.36
2019-03-22T12:19:20.523Z,50.31
2019-03-22T12:21:51.906Z,51.46
2019-03-22T12:24:23.297Z,51.11
2019-03-22T12:26:54.686Z,50.92
2019-03-22T12:29:26.056Z,51.09
2019-03-22T12:31:57.481Z,50.39
2019-03-22T12:34:28.867Z,50.99
2019-03-22T12:37:00.380Z,51.03
2019-03-22T12:39:31.783Z,51.72
2019-03-22T12:42:03.304Z,51.10
2019-03-22T12:44:34.778Z,50.50
2019-03-22T12:47:06.178Z,51.46
2019-03-22T12:49:37.554Z,51.14
2019-03-22T12:52:08.961Z,50.49
2019-03-22T12:54:40.341Z,50.83
2019-03-22T12:57:11.765Z,52.22
2019-03-22T12:59:43.153Z,51.46
2019-03-22T13:02:14.602Z,50.76
2019-03-22T13:04:46.008Z,50.77
2019-03-22T13:07:17.497Z,50.33
2019-03-22T13:09:50.150Z,50.50
2019-03-22T13:12:21.541Z,50.77
2019-03-22T13:14:52.946Z,49.25
2019-03-22T13:17:24.307Z,49.19
2019-03-22T13:19:55.717Z,48.72
2019-03-22T13:22:27.125Z,48.73
2019-03-22T13:24:58.543Z,48.75
2019-03-22T13:27:29.958Z,48.12
2019-03-22T13:30:01.294Z,47.56
2019-03-22T13:32:32.732Z,45.70
2019-03-22T13:35:04.124Z,46.48
2019-03-22T13:37:35.537Z,47.18
2019-03-22T13:40:08.673Z,46.97
2019-03-22T13:42:40.083Z,46.88
2019-03-22T13:45:11.493Z,45.64
2019-03-22T13:47:42.951Z,46.19
2019-03-22T13:50:14.455Z,45.67
2019-03-22T13:52:45.939Z,45.45
2019-03-22T13:55:17.375Z,44.90
2019-03-22T13:57:48.917Z,44.57
2019-03-22T14:00:20.618Z,44.87
2019-03-22T14:03:02.084Z,44.36
2019-03-22T14:05:25.209Z,42.48
2019-03-22T14:07:56.645Z,42.74
2019-03-22T14:10:33.067Z,41.15
2019-03-22T14:13:05.478Z,40.53
2019-03-22T14:15:36.835Z,40.40
2019-03-22T14:18:08.482Z,40.59
2019-03-22T14:20:39.874Z,39.15
2019-03-22T14:23:11.374Z,38.75
2019-03-22T14:25:42.726Z,38.34
2019-03-22T14:28:14.142Z,38.28
2019-03-22T14:30:46.594Z,37.99
2019-03-22T14:33:18.000Z,38.23
2019-03-22T14:35:49.433Z,38.93
2019-03-22T14:38:20.796Z,38.53
2019-03-22T14:40:52.217Z,37.81
2019-03-22T14:43:23.629Z,38.24
2019-03-22T14:45:56.759Z,37.73
2019-03-22T14:48:28.171Z,37.67
2019-03-22T14:50:59.579Z,37.13
2019-03-22T14:53:33.779Z,37.74
2019-03-22T14:56:05.177Z,37.37
2019-03-22T14:58:36.617Z,36.95
2019-03-22T15:01:08.022Z,37.54
2019-03-22T15:03:39.442Z,36.43
2019-03-22T15:06:10.793Z,36.07
2019-03-22T15:08:42.326Z,36.16
2019-03-22T15:11:13.712Z,37.23
2019-03-22T15:13:59.553Z,36.58
2019-03-22T15:16:55.693Z,36.48
2019-03-22T15:19:44.473Z,35.44
2019-03-22T15:22:32.756Z,36.27
2019-03-22T15:25:23.074Z,36.37
2019-03-22T15:28:12.069Z,36.36
2019-03-22T15:31:11.593Z,37.26
2019-03-22T15:34:08.920Z,36.73
2019-03-22T15:37:11.283Z,36.77
2019-03-22T15:40:00.464Z,36.62
2019-03-22T15:42:32.041Z,35.21
2019-03-22T15:45:03.532Z,35.76
2019-03-22T15:47:34.980Z,36.16
2019-03-22T15:50:07.872Z,35.87
2019-03-22T15:52:39.334Z,36.39
2019-03-22T15:55:10.764Z,37.03
2019-03-22T15:57:42.148Z,36.91
2019-03-22T16:00:19.087Z,36.80
2019-03-22T16:02:50.527Z,36.30
2019-03-22T16:05:21.852Z,36.86
2019-03-22T16:07:53.418Z,37.04
2019-03-22T16:10:24.769Z,36.17
2019-03-22T16:12:56.165Z,36.66
2019-03-22T16:15:27.565Z,36.52
2019-03-22T16:17:59.179Z,37.64
2019-03-22T16:20:30.595Z,38.80
2019-03-22T16:23:01.956Z,38.06
2019-03-22T16:25:33.415Z,41.48
2019-03-22T16:28:04.801Z,42.75
2019-03-22T16:30:36.198Z,43.74
2019-03-22T16:33:07.572Z,43.93
2019-03-22T16:35:39.018Z,45.24
2019-03-22T16:38:10.419Z,45.47
2019-03-22T16:40:41.857Z,46.13
2019-03-22T16:43:13.258Z,46.27
2019-03-22T16:45:45.107Z,46.75
2019-03-22T16:48:18.578Z,48.21
2019-03-22T16:50:50.057Z,47.44
2019-03-22T16:53:21.807Z,47.60
2019-03-22T16:55:53.248Z,47.78
2019-03-22T16:58:24.582Z,49.14
2019-03-22T17:00:56.002Z,49.72
2019-03-22T17:03:27.469Z,49.43
2019-03-22T17:05:58.854Z,49.52
2019-03-22T17:08:35.467Z,50.06
2019-03-22T17:11:08.994Z,49.91
2019-03-22T17:13:40.129Z,49.76
2019-03-22T17:16:11.623Z,50.29
2019-03-22T17:18:42.989Z,50.80
2019-03-22T17:21:14.406Z,51.31
2019-03-22T17:23:45.803Z,51.58
2019-03-22T17:26:17.203Z,52.71
2019-03-22T17:28:48.599Z,52.16
2019-03-22T17:31:20.064Z,52.55
2019-03-22T17:33:51.476Z,53.32
2019-03-22T17:36:22.909Z,54.26
2019-03-22T17:38:54.303Z,54.17
2019-03-22T17:41:25.705Z,54.61
2019-03-22T17:43:57.110Z,55.71
2019-03-22T17:46:28.569Z,55.28
2019-03-22T17:48:59.951Z,55.47
2019-03-22T17:51:31.475Z,55.96
2019-03-22T17:54:02.925Z,56.11
2019-03-22T17:56:34.341Z,56.30
2019-03-22T17:59:05.766Z,57.06
2019-03-22T18:01:37.257Z,57.02
2019-03-22T18:04:08.650Z,57.91
2019-03-22T18:06:40.172Z,59.03
2019-03-22T18:09:11.584Z,59.22
2019-03-22T18:11:43.029Z,59.71
2019-03-22T18:14:14.357Z,59.56
2019-03-22T18:16:45.820Z,60.20
2019-03-22T18:19:17.223Z,60.17
2019-03-22T18:21:48.660Z,60.49
2019-03-22T18:24:20.057Z,60.72
2019-03-22T18:26:51.537Z,60.87
2019-03-22T18:29:22.888Z,60.29
2019-03-22T18:31:54.305Z,60.70
2019-03-22T18:34:33.930Z,60.35
2019-03-22T18:36:58.937Z,60.92
2019-03-22T18:39:30.328Z,61.75
2019-03-22T18:42:02.893Z,62.31
2019-03-22T18:44:34.270Z,62.56
2019-03-22T18:47:05.778Z,62.83
2019-03-22T18:49:38.720Z,63.68
2019-03-22T18:52:10.203Z,63.66
2019-03-22T18:54:45.554Z,63.10
2019-03-22T18:57:17.100Z,63.00
2019-03-22T18:59:48.549Z,63.34
2019-03-22T19:02:20.987Z,63.11
2019-03-22T19:04:52.403Z,64.14
2019-03-22T19:07:23.866Z,64.82
2019-03-22T19:09:58.272Z,64.70
2019-03-22T19:12:29.692Z,65.01
2019-03-22T19:15:03.249Z,65.09
2019-03-22T19:17:34.712Z,66.08
2019-03-22T19:20:07.501Z,66.15
2019-03-22T19:22:38.925Z,66.96
2019-03-22T19:25:14.455Z,68.45
2019-03-22T19:27:46.177Z,68.25
2019-03-22T19:30:17.637Z,68.11
2019-03-22T19:32:49.093Z,68.01
2019-03-22T19:35:20.539Z,68.10
2019-03-22T19:37:52.821Z,68.87
2019-03-22T19:40:24.330Z,69.41
2019-03-22T19:42:55.791Z,69.41
2019-03-22T19:45:27.161Z,69.49
2019-03-22T19:48:00.152Z,69.68
2019-03-22T19:50:31.505Z,70.53
2019-03-22T19:53:05.819Z,70.70
2019-03-22T19:55:37.211Z,71.17
2019-03-22T19:58:08.679Z,71.69
2019-03-22T20:00:40.034Z,71.53
2019-03-22T20:03:11.482Z,71.67
2019-03-22T20:05:42.944Z,71.93
2019-03-22T20:08:16.430Z,72.43
2019-03-22T20:10:49.002Z,72.79
2019-03-22T20:13:22.167Z,73.14
2019-03-22T20:15:53.676Z,73.43
2019-03-22T20:18:25.136Z,74.07
2019-03-22T20:20:58.155Z,73.47
2019-03-22T20:23:29.525Z,74.04
2019-03-22T20:26:00.925Z,73.85
2019-03-22T20:28:32.414Z,74.58
2019-03-22T20:31:03.858Z,74.79
2019-03-22T20:33:35.948Z,75.33
2019-03-22T20:36:07.452Z,75.68
2019-03-22T20:38:38.876Z,76.14
2019-03-22T20:41:10.242Z,75.41
2019-03-22T20:43:43.197Z,75.63
2019-03-22T20:46:14.600Z,75.96
2019-03-22T20:48:46.078Z,76.98
2019-03-22T20:51:17.573Z,78.05
2019-03-22T20:53:50.047Z,78.00
2019-03-22T20:56:21.642Z,77.74
2019-03-22T20:58:53.385Z,77.51
2019-03-22T21:01:24.717Z,78.37
2019-03-22T21:03:56.227Z,78.66
2019-03-22T21:06:27.721Z,79.19
2019-03-22T21:08:59.071Z,78.65
2019-03-22T21:11:31.971Z,79.40
2019-03-22T21:14:03.372Z,79.28
2019-03-22T21:16:34.826Z,79.75
2019-03-22T21:19:06.259Z,79.67
2019-03-22T21:21:37.691Z,79.35
2019-03-22T21:24:11.931Z,79.12
2019-03-22T21:26:43.402Z,79.35
2019-03-22T21:29:14.748Z,78.94
2019-03-22T21:31:46.183Z,78.69
2019-03-22T21:34:17.590Z,78.89
2019-03-22T21:36:49.038Z,79.38
2019-03-22T21:39:20.474Z,80.09
2019-03-22T21:41:51.879Z,80.60
2019-03-22T21:44:23.301Z,80.96
2019-03-22T21:46:54.699Z,81.21
2019-03-22T21:49:26.084Z,80.72
2019-03-22T21:52:00.360Z,80.59
2019-03-22T21:54:31.777Z,80.43
2019-03-22T21:57:03.232Z,80.46
2019-03-22T21:59:34.585Z,80.99
2019-03-22T22:02:08.041Z,81.40
2019-03-22T22:04:39.145Z,81.68
2019-03-22T22:07:10.615Z,81.26
2019-03-22T22:09:41.991Z,81.43
2019-03-22T22:12:13.406Z,81.93
2019-03-22T22:14:44.815Z,82.31
2019-03-22T22:17:16.249Z,82.08
2019-03-22T22:19:48.625Z,82.20
2019-03-22T22:22:20.042Z,82.41
2019-03-22T22:24:51.411Z,82.92
2019-03-22T22:27:22.825Z,82.72
2019-03-22T22:29:55.928Z,82.76
2019-03-22T22:32:27.362Z,83.19
2019-03-22T22:34:58.743Z,83.03
2019-03-22T22:37:30.180Z,83.25
2019-03-22T22:40:01.598Z,83.33
2019-03-22T22:42:36.115Z,83.28
2019-03-22T22:45:08.445Z,83.63
2019-03-22T22:47:42.740Z,83.96
2019-03-22T22:50:16.030Z,84.30
2019-03-22T22:52:47.475Z,84.08
2019-03-22T22:55:18.877Z,83.77
2019-03-22T22:57:50.306Z,83.65
2019-03-22T23:00:21.722Z,83.77
2019-03-22T23:02:56.652Z,84.26
2019-03-22T23:05:27.784Z,84.38
2019-03-22T23:07:59.241Z,85.13
2019-03-22T23:10:30.586Z,84.77
2019-03-22T23:13:02.086Z,85.53
2019-03-22T23:15:33.486Z,85.28
2019-03-22T23:18:04.927Z,85.15
2019-03-22T23:20:36.298Z,84.71
2019-03-22T23:23:07.734Z,84.55
2019-03-22T23:25:39.090Z,84.39
2019-03-22T23:28:10.531Z,84.74
2019-03-22T23:30:41.887Z,84.78
2019-03-22T23:33:15.161Z,85.21
2019-03-22T23:35:46.495Z,85.72
2019-03-22T23:38:17.964Z,85.51
2019-03-22T23:40:49.342Z,85.17
2019-03-22T23:43:20.766Z,85.12
2019-03-22T23:45:53.662Z,85.12
2019-03-22T23:48:25.065Z,85.66
2019-03-22T23:50:56.479Z,86.32
2019-03-22T23:53:27.928Z,86.14
2019-03-22T23:55:59.363Z,85.56
2019-03-22T23:58:30.767Z,85.83
